»·PEaware :: N196EC KSAN-KGCN

N196EC :: KSAN-KGCN

FLIGHT INFORMATION

Flight Status: Arrived
Operator: Privately registered:
United States
More flights under this callsign
Pilot: Adrián R. (20842)
Aircraft: SOCATA TBM-900
(TBM9)
More flights by this aircraft type
Origin: KSAN San Diego Intl-Lindbergh
United States
Destination: KGCN Grand Canyon Natl Park
United States
More flights between these airports :: More routes between these airports
Route: +BRDR7 JLI TRM J236 EED PGS
File this flight plan on PilotEdge
Remarks:
Altitude:
(Current/Filed)
31,000ft
Speed:
(Current/Filed)
313kts
Departed: 10-Nov-18 09:20 AM
Arrived: 10-Nov-18 10:38 AM
Distance/Time
Traveled:
316nm/1:17
Distance/Time
To Go:
Arrived

Flight Plot

Page will automatically refresh every two minutes.

Flight plan parsing failed; only flown route is shown


Map Options




Map Legend


Flown Route
Filed Route
Departure Airport
Arrival Airport
Navaid (VOR, NDB)
Fix

Horizontal Profiles

Position Reports

Time Latitude Longitude Heading Altitude Ground
Speed
10-Nov-18 08:33 32.732527 -117.177100 194 21ft 0kts
10-Nov-18 08:34 32.732527 -117.177100 194 21ft 0kts
10-Nov-18 08:35 32.732527 -117.177100 194 21ft 0kts
10-Nov-18 08:36 32.732527 -117.177100 194 21ft 0kts
10-Nov-18 08:37 32.732527 -117.177100 194 21ft 0kts
10-Nov-18 08:38 32.732527 -117.177100 194 21ft 0kts
10-Nov-18 08:39 32.732527 -117.177100 194 21ft 0kts
10-Nov-18 08:40 32.732527 -117.177100 194 21ft 0kts
10-Nov-18 08:41 32.732527 -117.177100 194 21ft 0kts
10-Nov-18 08:42 32.732527 -117.177100 194 21ft 0kts
10-Nov-18 08:43 32.732527 -117.177100 194 21ft 0kts
10-Nov-18 08:44 32.732527 -117.177100 194 21ft 0kts
10-Nov-18 08:45 32.732527 -117.177100 194 21ft 0kts
10-Nov-18 08:46 32.732527 -117.177100 194 21ft 0kts
10-Nov-18 08:47 32.732527 -117.177100 194 21ft 0kts
10-Nov-18 08:48 32.732527 -117.177100 194 21ft 0kts
10-Nov-18 08:49 32.732527 -117.177100 194 21ft 0kts
10-Nov-18 08:50 32.732527 -117.177100 194 21ft 0kts
10-Nov-18 08:51 32.732527 -117.177100 194 21ft 0kts
10-Nov-18 08:52 32.732527 -117.177100 194 21ft 0kts
10-Nov-18 08:53 32.732527 -117.177100 194 21ft 0kts
10-Nov-18 08:54 32.732527 -117.177100 194 21ft 0kts
10-Nov-18 08:55 32.732527 -117.177100 194 21ft 0kts
10-Nov-18 08:56 32.732527 -117.177100 194 21ft 0kts
10-Nov-18 08:57 32.732527 -117.177100 194 21ft 0kts
10-Nov-18 08:58 32.732527 -117.177100 194 21ft 0kts
10-Nov-18 08:59 32.732527 -117.177100 194 21ft 0kts
10-Nov-18 09:00 32.732527 -117.177100 194 21ft 0kts
10-Nov-18 09:01 32.732527 -117.177100 194 21ft 0kts
10-Nov-18 09:02 32.732527 -117.177100 194 21ft 0kts
10-Nov-18 09:03 32.732527 -117.177100 194 21ft 0kts
10-Nov-18 09:04 32.732527 -117.177100 194 21ft 0kts
10-Nov-18 09:05 32.732527 -117.177100 194 21ft 0kts
10-Nov-18 09:06 32.732527 -117.177100 194 21ft 0kts
10-Nov-18 09:07 32.732527 -117.177100 194 21ft 0kts
10-Nov-18 09:08 32.732527 -117.177100 194 21ft 0kts
10-Nov-18 09:09 32.732527 -117.177100 194 21ft 0kts
10-Nov-18 09:10 32.732527 -117.177100 194 21ft 0kts
10-Nov-18 09:11 32.732527 -117.177100 194 21ft 0kts
10-Nov-18 09:12 32.732527 -117.177100 194 21ft 0kts
10-Nov-18 09:13 32.732527 -117.177100 194 21ft 0kts
10-Nov-18 09:14 32.732527 -117.177100 194 21ft 0kts
10-Nov-18 09:15 32.732527 -117.177100 194 21ft 0kts
10-Nov-18 09:16 32.732527 -117.177100 194 21ft 0kts
10-Nov-18 09:17 32.732527 -117.177100 194 21ft 0kts
10-Nov-18 09:18 32.732527 -117.177100 194 21ft 0kts
10-Nov-18 09:19 32.731468 -117.176705 133 21ft 7kts
10-Nov-18 09:20 32.730987 -117.175461 147 23ft 0kts
10-Nov-18 09:21 32.730943 -117.175428 147 23ft 3kts
10-Nov-18 09:22 32.730264 -117.176053 287 19ft 28kts
10-Nov-18 09:23 32.741106 -117.215391 290 1452ft 148kts
10-Nov-18 09:24 32.754598 -117.261213 290 3782ft 158kts
10-Nov-18 09:25 32.757059 -117.309505 212 5851ft 165kts
10-Nov-18 09:26 32.722436 -117.282920 131 8081ft 171kts
10-Nov-18 09:27 32.689533 -117.241982 133 10377ft 176kts
10-Nov-18 09:28 32.652672 -117.197022 133 11871ft 205kts
10-Nov-18 09:29 32.620488 -117.142892 95 13355ft 209kts
10-Nov-18 09:30 32.615867 -117.073266 91 15209ft 215kts
10-Nov-18 09:31 32.611664 -117.001750 91 16970ft 223kts
10-Nov-18 09:32 32.615427 -116.928160 79 18559ft 228kts
10-Nov-18 09:33 32.622989 -116.852170 79 19951ft 236kts
10-Nov-18 09:34 32.635205 -116.775495 43 21288ft 239kts
10-Nov-18 09:35 32.695429 -116.746818 12 22825ft 235kts
10-Nov-18 09:36 32.757268 -116.724543 12 24641ft 232kts
10-Nov-18 09:37 32.818814 -116.702365 11 26329ft 232kts
10-Nov-18 09:38 32.880429 -116.680130 10 27895ft 233kts
10-Nov-18 09:39 32.941853 -116.657927 10 29437ft 233kts
10-Nov-18 09:40 33.004211 -116.635365 10 30998ft 236kts
10-Nov-18 09:41 33.073787 -116.610207 11 31101ft 286kts
10-Nov-18 09:42 33.145121 -116.581488 25 31079ft 311kts
10-Nov-18 09:43 33.207309 -116.527959 31 31084ft 321kts
10-Nov-18 09:44 33.279589 -116.465085 31 31074ft 323kts
10-Nov-18 09:45 33.352354 -116.401678 31 31068ft 324kts
10-Nov-18 09:46 33.423496 -116.339562 32 31062ft 324kts
10-Nov-18 09:47 33.495909 -116.276201 32 31062ft 323kts
10-Nov-18 09:48 33.568201 -116.212811 32 31062ft 322kts
10-Nov-18 09:49 33.638199 -116.145467 46 31060ft 327kts
10-Nov-18 09:50 33.696194 -116.061500 46 31063ft 327kts
10-Nov-18 09:51 33.753876 -115.977674 46 31063ft 327kts
10-Nov-18 09:52 33.811779 -115.893343 46 31064ft 327kts
10-Nov-18 09:53 33.869653 -115.808862 46 31064ft 327kts
10-Nov-18 09:54 33.927337 -115.724446 46 31065ft 327kts
10-Nov-18 09:55 33.984928 -115.639967 46 31113ft 326kts
10-Nov-18 09:56 34.042308 -115.555604 46 31163ft 326kts
10-Nov-18 09:57 34.099808 -115.470871 46 31202ft 326kts
10-Nov-18 09:58 34.157092 -115.386261 46 31189ft 328kts
10-Nov-18 09:59 34.212473 -115.304259 47 31156ft 329kts
10-Nov-18 10:00 34.270085 -115.218752 47 31128ft 328kts
10-Nov-18 10:01 34.327428 -115.133446 47 31118ft 328kts
10-Nov-18 10:02 34.384659 -115.048091 47 31119ft 327kts
10-Nov-18 10:03 34.441798 -114.962677 47 31119ft 327kts
10-Nov-18 10:04 34.498822 -114.877231 47 31119ft 327kts
10-Nov-18 10:05 34.556040 -114.791285 47 31120ft 328kts
10-Nov-18 10:06 34.613209 -114.705206 47 31120ft 328kts
10-Nov-18 10:07 34.670460 -114.618791 47 31119ft 329kts
10-Nov-18 10:08 34.727555 -114.532398 47 31120ft 329kts
10-Nov-18 10:09 34.788398 -114.450330 37 31122ft 325kts
10-Nov-18 10:10 34.856124 -114.377811 37 31117ft 325kts
10-Nov-18 10:11 34.911441 -114.318548 37 31110ft 325kts
10-Nov-18 10:12 34.979227 -114.245788 37 31107ft 325kts
10-Nov-18 10:13 35.046890 -114.172993 36 31118ft 323kts
10-Nov-18 10:14 35.113261 -114.101445 36 31142ft 323kts
10-Nov-18 10:15 35.182153 -114.027007 37 30294ft 340kts
10-Nov-18 10:16 35.252624 -113.950684 37 29313ft 343kts
10-Nov-18 10:17 35.324216 -113.872910 37 28326ft 345kts
10-Nov-18 10:18 35.395708 -113.795082 37 27342ft 345kts
10-Nov-18 10:19 35.467268 -113.716983 38 26355ft 344kts
10-Nov-18 10:20 35.538402 -113.639153 38 25366ft 340kts
10-Nov-18 10:21 35.608187 -113.562621 38 24376ft 335kts
10-Nov-18 10:22 35.644978 -113.459872 70 24144ft 326kts
10-Nov-18 10:23 35.670325 -113.354635 71 23906ft 327kts
10-Nov-18 10:24 35.695930 -113.247457 72 22291ft 311kts
10-Nov-18 10:25 35.720165 -113.145571 72 21156ft 325kts
10-Nov-18 10:26 35.746008 -113.036457 72 19033ft 332kts
10-Nov-18 10:27 35.771106 -112.930026 72 17778ft 319kts
10-Nov-18 10:28 35.795771 -112.824982 73 16392ft 322kts
10-Nov-18 10:29 35.820410 -112.719525 73 14737ft 318kts
10-Nov-18 10:30 35.844588 -112.615619 73 13052ft 314kts
10-Nov-18 10:31 35.868103 -112.514161 73 11368ft 301kts
10-Nov-18 10:32 35.890615 -112.416609 74 9672ft 289kts
10-Nov-18 10:33 35.910956 -112.328483 74 8991ft 243kts
10-Nov-18 10:34 35.939954 -112.261032 53 9004ft 217kts
10-Nov-18 10:35 35.980130 -112.206266 45 9009ft 215kts
10-Nov-18 10:36 36.019658 -112.154509 45 8915ft 195kts
10-Nov-18 10:37 36.025150 -112.105150 139 8556ft 128kts
10-Nov-18 10:38 35.998305 -112.103521 204 7950ft 102kts
10-Nov-18 10:39 35.975903 -112.121988 222 7080ft 92kts
10-Nov-18 10:40 35.957353 -112.141615 222 6605ft 74kts
10-Nov-18 10:41 35.951785 -112.146049 100 6604ft 0kts
10-Nov-18 10:42 35.952116 -112.145394 42 6604ft 7kts
10-Nov-18 10:43 35.954111 -112.143304 41 6604ft 10kts
10-Nov-18 10:44 35.956808 -112.140429 40 6604ft 15kts
10-Nov-18 10:45 35.960174 -112.136863 40 6604ft 16kts
10-Nov-18 10:46 35.961428 -112.134624 233 6604ft 4kts
10-Nov-18 10:47 35.961319 -112.134784 221 6604ft 0kts
10-Nov-18 10:48 35.961317 -112.134786 221 6604ft 0kts

Navigation Log

Ident Type
Flight plan parsing failed, navigation log unavailable